< < Back
Terminal Aerodrome Forecast


Current Version              Previous Versions:   1  2  3  4  5  6  7  8  9  

Terminal Aerodrome Forecast

034
FTUS44 KBMX 050520
TAFTCL
TAF
KTCL 050520Z 0506/0606 00000KT P6SM SKC
      TEMPO 0509/0512 4SM BR
     FM051400 09004KT P6SM FEW030=

Latest METAR

594
SAUS70 KWBC 051556
MTRTCL
METAR KTCL 051553Z 10004KT 7SM CLR 32/22 A3007 RMK AO2 SLP180
T03220222


USA.gov is the U.S. government's official web portal to all federal, state and local government web resources and services.